sensor_id;sensor_type;location;lat;lon;timestamp;P1;durP1;ratioP1;P2;durP2;ratioP2
45792;SDS011;31495;42.740;22.908;2023-07-09T00:00:56;4.25;;;2.78;;
45792;SDS011;31495;42.740;22.908;2023-07-09T00:01:56;5.70;;;2.80;;
45792;SDS011;31495;42.740;22.908;2023-07-09T00:02:55;6.38;;;2.10;;
45792;SDS011;31495;42.740;22.908;2023-07-09T00:03:55;3.20;;;2.20;;
45792;SDS011;31495;42.740;22.908;2023-07-09T00:04:54;4.25;;;1.92;;
45792;SDS011;31495;42.740;22.908;2023-07-09T00:05:53;6.63;;;2.65;;
45792;SDS011;31495;42.740;22.908;2023-07-09T00:06:53;4.68;;;2.30;;
45792;SDS011;31495;42.740;22.908;2023-07-09T00:07:54;4.93;;;2.55;;
45792;SDS011;31495;42.740;22.908;2023-07-09T00:08:54;5.28;;;2.67;;
45792;SDS011;31495;42.740;22.908;2023-07-09T00:09:53;7.25;;;2.67;;
45792;SDS011;31495;42.740;22.908;2023-07-09T00:10:54;4.45;;;2.55;;
45792;SDS011;31495;42.740;22.908;2023-07-09T00:11:55;5.15;;;3.03;;
45792;SDS011;31495;42.740;22.908;2023-07-09T00:12:55;3.80;;;2.28;;
45792;SDS011;31495;42.740;22.908;2023-07-09T00:13:54;3.38;;;2.30;;
45792;SDS011;31495;42.740;22.908;2023-07-09T00:14:53;3.97;;;2.53;;
45792;SDS011;31495;42.740;22.908;2023-07-09T00:15:57;7.75;;;3.03;;
45792;SDS011;31495;42.740;22.908;2023-07-09T00:17:00;3.65;;;2.10;;
45792;SDS011;31495;42.740;22.908;2023-07-09T00:18:01;5.10;;;2.50;;
45792;SDS011;31495;42.740;22.908;2023-07-09T00:19:00;10.52;;;3.10;;
45792;SDS011;31495;42.740;22.908;2023-07-09T00:20:03;3.53;;;2.38;;
45792;SDS011;31495;42.740;22.908;2023-07-09T00:21:04;4.25;;;2.42;;
45792;SDS011;31495;42.740;22.908;2023-07-09T00:22:09;5.32;;;2.72;;
45792;SDS011;31495;42.740;22.908;2023-07-09T00:23:16;8.07;;;2.50;;
45792;SDS011;31495;42.740;22.908;2023-07-09T00:24:15;4.93;;;2.75;;
45792;SDS011;31495;42.740;22.908;2023-07-09T00:25:15;6.53;;;2.40;;
45792;SDS011;31495;42.740;22.908;2023-07-09T00:26:16;7.32;;;2.13;;
45792;SDS011;31495;42.740;22.908;2023-07-09T00:27:17;5.63;;;3.33;;
45792;SDS011;31495;42.740;22.908;2023-07-09T00:28:19;4.68;;;2.35;;
45792;SDS011;31495;42.740;22.908;2023-07-09T00:29:19;4.68;;;3.00;;
45792;SDS011;31495;42.740;22.908;2023-07-09T00:30:19;7.43;;;2.88;;
45792;SDS011;31495;42.740;22.908;2023-07-09T00:31:21;3.47;;;2.20;;
45792;SDS011;31495;42.740;22.908;2023-07-09T00:32:20;5.15;;;2.88;;
45792;SDS011;31495;42.740;22.908;2023-07-09T00:33:20;4.82;;;3.13;;
45792;SDS011;31495;42.740;22.908;2023-07-09T00:34:20;5.43;;;2.60;;
45792;SDS011;31495;42.740;22.908;2023-07-09T00:35:20;7.70;;;2.47;;
45792;SDS011;31495;42.740;22.908;2023-07-09T00:36:26;4.55;;;2.70;;
45792;SDS011;31495;42.740;22.908;2023-07-09T00:37:33;5.97;;;2.47;;
45792;SDS011;31495;42.740;22.908;2023-07-09T00:38:32;6.85;;;2.70;;
45792;SDS011;31495;42.740;22.908;2023-07-09T00:39:37;6.68;;;3.17;;
45792;SDS011;31495;42.740;22.908;2023-07-09T00:40:44;5.13;;;2.67;;
45792;SDS011;31495;42.740;22.908;2023-07-09T00:41:46;5.85;;;2.63;;
45792;SDS011;31495;42.740;22.908;2023-07-09T00:42:47;7.13;;;2.92;;
45792;SDS011;31495;42.740;22.908;2023-07-09T00:43:49;6.45;;;3.28;;
45792;SDS011;31495;42.740;22.908;2023-07-09T00:44:51;4.53;;;3.03;;
45792;SDS011;31495;42.740;22.908;2023-07-09T00:47:15;5.40;;;2.42;;
45792;SDS011;31495;42.740;22.908;2023-07-09T00:48:26;12.48;;;3.50;;
45792;SDS011;31495;42.740;22.908;2023-07-09T00:49:30;4.05;;;2.45;;
45792;SDS011;31495;42.740;22.908;2023-07-09T00:50:49;4.82;;;2.50;;
45792;SDS011;31495;42.740;22.908;2023-07-09T00:51:52;5.10;;;2.38;;
45792;SDS011;31495;42.740;22.908;2023-07-09T00:52:54;4.03;;;2.30;;
45792;SDS011;31495;42.740;22.908;2023-07-09T00:54:03;3.92;;;2.20;;
45792;SDS011;31495;42.740;22.908;2023-07-09T00:55:14;9.13;;;2.45;;
45792;SDS011;31495;42.740;22.908;2023-07-09T00:56:21;4.18;;;2.95;;
45792;SDS011;31495;42.740;22.908;2023-07-09T00:57:37;3.85;;;2.60;;
45792;SDS011;31495;42.740;22.908;2023-07-09T00:58:38;4.35;;;2.65;;
45792;SDS011;31495;42.740;22.908;2023-07-09T00:59:38;7.65;;;2.45;;
45792;SDS011;31495;42.740;22.908;2023-07-09T01:00:41;4.43;;;2.50;;
45792;SDS011;31495;42.740;22.908;2023-07-09T01:01:45;7.90;;;2.80;;
45792;SDS011;31495;42.740;22.908;2023-07-09T01:02:48;5.47;;;2.53;;
45792;SDS011;31495;42.740;22.908;2023-07-09T01:03:51;7.22;;;2.75;;
45792;SDS011;31495;42.740;22.908;2023-07-09T01:04:55;4.55;;;2.63;;
45792;SDS011;31495;42.740;22.908;2023-07-09T01:05:59;5.15;;;2.63;;
45792;SDS011;31495;42.740;22.908;2023-07-09T01:06:59;3.97;;;2.63;;
45792;SDS011;31495;42.740;22.908;2023-07-09T01:08:00;6.85;;;2.85;;
45792;SDS011;31495;42.740;22.908;2023-07-09T01:08:59;5.22;;;2.55;;
45792;SDS011;31495;42.740;22.908;2023-07-09T01:11:00;5.30;;;2.67;;
45792;SDS011;31495;42.740;22.908;2023-07-09T01:12:00;4.43;;;2.47;;
45792;SDS011;31495;42.740;22.908;2023-07-09T01:13:03;4.38;;;2.70;;
45792;SDS011;31495;42.740;22.908;2023-07-09T01:14:03;4.78;;;2.45;;
45792;SDS011;31495;42.740;22.908;2023-07-09T01:15:06;9.02;;;2.78;;
45792;SDS011;31495;42.740;22.908;2023-07-09T01:16:06;5.75;;;2.72;;
45792;SDS011;31495;42.740;22.908;2023-07-09T01:17:06;5.00;;;2.30;;
45792;SDS011;31495;42.740;22.908;2023-07-09T01:18:08;5.55;;;2.45;;
45792;SDS011;31495;42.740;22.908;2023-07-09T01:19:09;10.82;;;3.00;;
45792;SDS011;31495;42.740;22.908;2023-07-09T01:20:09;3.85;;;2.33;;
45792;SDS011;31495;42.740;22.908;2023-07-09T01:21:15;4.80;;;2.22;;
45792;SDS011;31495;42.740;22.908;2023-07-09T01:22:17;7.55;;;2.70;;
45792;SDS011;31495;42.740;22.908;2023-07-09T01:23:18;5.15;;;2.78;;
45792;SDS011;31495;42.740;22.908;2023-07-09T01:25:46;3.55;;;2.22;;
45792;SDS011;31495;42.740;22.908;2023-07-09T01:26:51;4.40;;;2.28;;
45792;SDS011;31495;42.740;22.908;2023-07-09T01:27:51;5.22;;;2.33;;
45792;SDS011;31495;42.740;22.908;2023-07-09T01:28:52;4.53;;;2.88;;
45792;SDS011;31495;42.740;22.908;2023-07-09T01:29:52;4.60;;;2.70;;
45792;SDS011;31495;42.740;22.908;2023-07-09T01:30:53;5.15;;;2.63;;
45792;SDS011;31495;42.740;22.908;2023-07-09T01:31:55;7.03;;;2.53;;
45792;SDS011;31495;42.740;22.908;2023-07-09T01:32:56;4.68;;;2.83;;
45792;SDS011;31495;42.740;22.908;2023-07-09T01:33:57;5.82;;;2.70;;
45792;SDS011;31495;42.740;22.908;2023-07-09T01:34:58;7.32;;;3.00;;
45792;SDS011;31495;42.740;22.908;2023-07-09T01:36:03;6.93;;;3.17;;
45792;SDS011;31495;42.740;22.908;2023-07-09T01:37:03;10.57;;;3.10;;
45792;SDS011;31495;42.740;22.908;2023-07-09T01:38:03;3.85;;;2.78;;
45792;SDS011;31495;42.740;22.908;2023-07-09T01:39:05;4.47;;;3.17;;
45792;SDS011;31495;42.740;22.908;2023-07-09T01:40:05;6.75;;;3.30;;
45792;SDS011;31495;42.740;22.908;2023-07-09T01:41:08;4.20;;;2.80;;
45792;SDS011;31495;42.740;22.908;2023-07-09T01:42:13;3.33;;;2.15;;
45792;SDS011;31495;42.740;22.908;2023-07-09T01:43:12;5.78;;;3.28;;
45792;SDS011;31495;42.740;22.908;2023-07-09T01:44:12;4.13;;;2.40;;
45792;SDS011;31495;42.740;22.908;2023-07-09T01:45:12;3.70;;;2.50;;
45792;SDS011;31495;42.740;22.908;2023-07-09T01:46:12;6.00;;;2.65;;
45792;SDS011;31495;42.740;22.908;2023-07-09T01:47:12;5.72;;;2.38;;
45792;SDS011;31495;42.740;22.908;2023-07-09T01:48:11;5.30;;;3.20;;
45792;SDS011;31495;42.740;22.908;2023-07-09T01:49:14;5.97;;;3.20;;
45792;SDS011;31495;42.740;22.908;2023-07-09T01:50:16;4.57;;;2.40;;
45792;SDS011;31495;42.740;22.908;2023-07-09T01:51:18;4.60;;;2.75;;
45792;SDS011;31495;42.740;22.908;2023-07-09T01:52:18;4.60;;;2.67;;
45792;SDS011;31495;42.740;22.908;2023-07-09T01:53:19;4.97;;;2.58;;
45792;SDS011;31495;42.740;22.908;2023-07-09T01:54:25;4.43;;;2.50;;
45792;SDS011;31495;42.740;22.908;2023-07-09T01:55:24;5.25;;;2.92;;
45792;SDS011;31495;42.740;22.908;2023-07-09T01:56:23;4.35;;;2.75;;
45792;SDS011;31495;42.740;22.908;2023-07-09T01:57:27;6.68;;;2.55;;
45792;SDS011;31495;42.740;22.908;2023-07-09T01:58:39;6.53;;;2.80;;
45792;SDS011;31495;42.740;22.908;2023-07-09T01:59:40;4.47;;;2.72;;
45792;SDS011;31495;42.740;22.908;2023-07-09T02:00:40;5.40;;;2.05;;
45792;SDS011;31495;42.740;22.908;2023-07-09T02:01:40;4.03;;;2.72;;
45792;SDS011;31495;42.740;22.908;2023-07-09T02:02:44;6.50;;;2.55;;
45792;SDS011;31495;42.740;22.908;2023-07-09T02:03:45;4.82;;;2.55;;
45792;SDS011;31495;42.740;22.908;2023-07-09T02:04:48;4.65;;;3.13;;
45792;SDS011;31495;42.740;22.908;2023-07-09T02:05:49;5.18;;;2.80;;
45792;SDS011;31495;42.740;22.908;2023-07-09T02:06:50;3.92;;;2.35;;
45792;SDS011;31495;42.740;22.908;2023-07-09T02:07:50;6.25;;;2.40;;
45792;SDS011;31495;42.740;22.908;2023-07-09T02:08:49;7.32;;;3.08;;
45792;SDS011;31495;42.740;22.908;2023-07-09T02:09:49;5.32;;;2.85;;
45792;SDS011;31495;42.740;22.908;2023-07-09T02:10:49;4.15;;;2.58;;
45792;SDS011;31495;42.740;22.908;2023-07-09T02:11:49;5.18;;;3.05;;
45792;SDS011;31495;42.740;22.908;2023-07-09T02:12:48;5.10;;;3.47;;
45792;SDS011;31495;42.740;22.908;2023-07-09T02:13:48;8.05;;;2.97;;
45792;SDS011;31495;42.740;22.908;2023-07-09T02:14:48;4.30;;;2.80;;
45792;SDS011;31495;42.740;22.908;2023-07-09T02:15:47;7.55;;;2.60;;
45792;SDS011;31495;42.740;22.908;2023-07-09T02:16:47;4.32;;;2.90;;
45792;SDS011;31495;42.740;22.908;2023-07-09T02:17:46;4.78;;;2.60;;
45792;SDS011;31495;42.740;22.908;2023-07-09T02:18:46;5.55;;;3.13;;
45792;SDS011;31495;42.740;22.908;2023-07-09T02:19:45;6.53;;;2.75;;
45792;SDS011;31495;42.740;22.908;2023-07-09T02:20:45;4.18;;;2.25;;
45792;SDS011;31495;42.740;22.908;2023-07-09T02:21:45;6.35;;;2.75;;
45792;SDS011;31495;42.740;22.908;2023-07-09T02:22:45;5.93;;;2.88;;
45792;SDS011;31495;42.740;22.908;2023-07-09T02:23:45;8.15;;;2.45;;
45792;SDS011;31495;42.740;22.908;2023-07-09T02:24:44;4.70;;;2.95;;
45792;SDS011;31495;42.740;22.908;2023-07-09T02:25:44;3.63;;;2.33;;
45792;SDS011;31495;42.740;22.908;2023-07-09T02:26:43;9.63;;;2.70;;
45792;SDS011;31495;42.740;22.908;2023-07-09T02:27:44;5.93;;;2.40;;
45792;SDS011;31495;42.740;22.908;2023-07-09T02:28:43;3.55;;;2.65;;
45792;SDS011;31495;42.740;22.908;2023-07-09T02:29:43;3.53;;;2.22;;
45792;SDS011;31495;42.740;22.908;2023-07-09T02:30:43;3.72;;;2.30;;
45792;SDS011;31495;42.740;22.908;2023-07-09T02:31:43;5.50;;;2.80;;
45792;SDS011;31495;42.740;22.908;2023-07-09T02:32:43;8.23;;;3.08;;
45792;SDS011;31495;42.740;22.908;2023-07-09T02:33:43;4.65;;;3.08;;
45792;SDS011;31495;42.740;22.908;2023-07-09T02:34:42;4.20;;;2.70;;
45792;SDS011;31495;42.740;22.908;2023-07-09T02:35:42;5.53;;;2.58;;
45792;SDS011;31495;42.740;22.908;2023-07-09T02:36:41;5.85;;;3.47;;
45792;SDS011;31495;42.740;22.908;2023-07-09T02:37:41;7.07;;;2.95;;
45792;SDS011;31495;42.740;22.908;2023-07-09T02:38:41;10.77;;;2.72;;
45792;SDS011;31495;42.740;22.908;2023-07-09T02:39:40;5.95;;;2.53;;
45792;SDS011;31495;42.740;22.908;2023-07-09T02:40:40;6.07;;;3.42;;
45792;SDS011;31495;42.740;22.908;2023-07-09T02:41:40;5.15;;;3.13;;
45792;SDS011;31495;42.740;22.908;2023-07-09T02:42:40;5.30;;;2.97;;
45792;SDS011;31495;42.740;22.908;2023-07-09T02:43:39;4.63;;;2.17;;
45792;SDS011;31495;42.740;22.908;2023-07-09T02:44:39;8.43;;;3.35;;
45792;SDS011;31495;42.740;22.908;2023-07-09T02:45:40;4.55;;;2.92;;
45792;SDS011;31495;42.740;22.908;2023-07-09T02:46:39;5.40;;;2.85;;
45792;SDS011;31495;42.740;22.908;2023-07-09T02:47:39;9.18;;;3.15;;
45792;SDS011;31495;42.740;22.908;2023-07-09T02:48:39;7.13;;;3.22;;
45792;SDS011;31495;42.740;22.908;2023-07-09T02:49:38;4.28;;;2.33;;
45792;SDS011;31495;42.740;22.908;2023-07-09T02:50:38;6.32;;;3.13;;
45792;SDS011;31495;42.740;22.908;2023-07-09T02:51:38;4.35;;;2.70;;
45792;SDS011;31495;42.740;22.908;2023-07-09T02:52:37;6.72;;;3.13;;
45792;SDS011;31495;42.740;22.908;2023-07-09T02:53:37;3.72;;;2.63;;
45792;SDS011;31495;42.740;22.908;2023-07-09T02:54:36;6.00;;;3.25;;
45792;SDS011;31495;42.740;22.908;2023-07-09T02:55:36;5.95;;;3.40;;
45792;SDS011;31495;42.740;22.908;2023-07-09T02:56:35;4.25;;;2.53;;
45792;SDS011;31495;42.740;22.908;2023-07-09T02:57:35;5.45;;;2.85;;
45792;SDS011;31495;42.740;22.908;2023-07-09T02:58:34;5.68;;;2.70;;
45792;SDS011;31495;42.740;22.908;2023-07-09T02:59:34;5.22;;;3.33;;
45792;SDS011;31495;42.740;22.908;2023-07-09T03:00:33;6.82;;;2.53;;
45792;SDS011;31495;42.740;22.908;2023-07-09T03:01:32;4.95;;;2.90;;
45792;SDS011;31495;42.740;22.908;2023-07-09T03:02:33;5.70;;;2.63;;
45792;SDS011;31495;42.740;22.908;2023-07-09T03:03:33;5.10;;;2.88;;
45792;SDS011;31495;42.740;22.908;2023-07-09T03:04:33;8.32;;;3.35;;
45792;SDS011;31495;42.740;22.908;2023-07-09T03:05:33;5.10;;;2.78;;
45792;SDS011;31495;42.740;22.908;2023-07-09T03:06:32;5.80;;;3.03;;
45792;SDS011;31495;42.740;22.908;2023-07-09T03:07:32;6.28;;;3.58;;
45792;SDS011;31495;42.740;22.908;2023-07-09T03:08:32;5.45;;;3.28;;
45792;SDS011;31495;42.740;22.908;2023-07-09T03:09:31;7.72;;;3.45;;
45792;SDS011;31495;42.740;22.908;2023-07-09T03:10:31;4.80;;;2.42;;
45792;SDS011;31495;42.740;22.908;2023-07-09T03:11:31;6.80;;;3.08;;
45792;SDS011;31495;42.740;22.908;2023-07-09T03:12:31;7.05;;;2.63;;
45792;SDS011;31495;42.740;22.908;2023-07-09T03:13:31;4.45;;;2.58;;
45792;SDS011;31495;42.740;22.908;2023-07-09T03:14:31;4.28;;;2.97;;
45792;SDS011;31495;42.740;22.908;2023-07-09T03:15:31;6.03;;;2.47;;
45792;SDS011;31495;42.740;22.908;2023-07-09T03:16:33;5.60;;;3.15;;
45792;SDS011;31495;42.740;22.908;2023-07-09T03:17:33;4.10;;;2.85;;
45792;SDS011;31495;42.740;22.908;2023-07-09T03:18:32;4.35;;;2.88;;
45792;SDS011;31495;42.740;22.908;2023-07-09T03:19:31;5.68;;;2.67;;
45792;SDS011;31495;42.740;22.908;2023-07-09T03:20:31;8.32;;;2.95;;
45792;SDS011;31495;42.740;22.908;2023-07-09T03:21:31;5.70;;;3.17;;
45792;SDS011;31495;42.740;22.908;2023-07-09T03:22:31;5.03;;;2.42;;
45792;SDS011;31495;42.740;22.908;2023-07-09T03:23:31;5.60;;;3.00;;
45792;SDS011;31495;42.740;22.908;2023-07-09T03:24:31;8.05;;;3.88;;
45792;SDS011;31495;42.740;22.908;2023-07-09T03:25:30;4.88;;;2.50;;
45792;SDS011;31495;42.740;22.908;2023-07-09T03:26:30;9.90;;;2.85;;
45792;SDS011;31495;42.740;22.908;2023-07-09T03:27:30;7.22;;;2.90;;
45792;SDS011;31495;42.740;22.908;2023-07-09T03:28:30;5.68;;;3.15;;
45792;SDS011;31495;42.740;22.908;2023-07-09T03:29:30;6.75;;;3.25;;
45792;SDS011;31495;42.740;22.908;2023-07-09T03:30:30;4.53;;;2.72;;
45792;SDS011;31495;42.740;22.908;2023-07-09T03:31:29;8.20;;;3.15;;
45792;SDS011;31495;42.740;22.908;2023-07-09T03:32:29;4.82;;;2.67;;
45792;SDS011;31495;42.740;22.908;2023-07-09T03:33:29;3.45;;;2.40;;
45792;SDS011;31495;42.740;22.908;2023-07-09T03:34:28;5.05;;;3.50;;
45792;SDS011;31495;42.740;22.908;2023-07-09T03:35:28;9.68;;;3.38;;
45792;SDS011;31495;42.740;22.908;2023-07-09T03:36:27;4.95;;;3.15;;
45792;SDS011;31495;42.740;22.908;2023-07-09T03:37:27;4.85;;;3.15;;
45792;SDS011;31495;42.740;22.908;2023-07-09T03:38:26;5.03;;;2.88;;
45792;SDS011;31495;42.740;22.908;2023-07-09T03:39:26;4.03;;;2.80;;
45792;SDS011;31495;42.740;22.908;2023-07-09T03:40:25;7.30;;;2.92;;
45792;SDS011;31495;42.740;22.908;2023-07-09T03:41:25;4.15;;;2.88;;
45792;SDS011;31495;42.740;22.908;2023-07-09T03:42:24;4.80;;;2.63;;
45792;SDS011;31495;42.740;22.908;2023-07-09T03:43:24;8.25;;;3.17;;
45792;SDS011;31495;42.740;22.908;2023-07-09T03:44:25;6.15;;;3.35;;
45792;SDS011;31495;42.740;22.908;2023-07-09T03:45:24;9.20;;;3.13;;
45792;SDS011;31495;42.740;22.908;2023-07-09T03:46:24;6.97;;;3.00;;
45792;SDS011;31495;42.740;22.908;2023-07-09T03:47:23;7.22;;;3.15;;
45792;SDS011;31495;42.740;22.908;2023-07-09T03:48:23;3.53;;;2.78;;
45792;SDS011;31495;42.740;22.908;2023-07-09T03:49:23;5.55;;;2.75;;
45792;SDS011;31495;42.740;22.908;2023-07-09T03:50:22;11.57;;;2.80;;
45792;SDS011;31495;42.740;22.908;2023-07-09T03:51:22;4.50;;;3.05;;
45792;SDS011;31495;42.740;22.908;2023-07-09T03:52:21;4.75;;;2.95;;
45792;SDS011;31495;42.740;22.908;2023-07-09T03:53:20;4.38;;;3.30;;
45792;SDS011;31495;42.740;22.908;2023-07-09T03:54:20;5.75;;;3.67;;
45792;SDS011;31495;42.740;22.908;2023-07-09T03:55:19;4.45;;;2.67;;
45792;SDS011;31495;42.740;22.908;2023-07-09T03:56:20;6.72;;;3.47;;
45792;SDS011;31495;42.740;22.908;2023-07-09T03:57:19;9.98;;;3.22;;
45792;SDS011;31495;42.740;22.908;2023-07-09T03:58:18;6.65;;;3.70;;
45792;SDS011;31495;42.740;22.908;2023-07-09T03:59:18;7.63;;;3.55;;
45792;SDS011;31495;42.740;22.908;2023-07-09T04:00:17;9.93;;;2.50;;
45792;SDS011;31495;42.740;22.908;2023-07-09T04:01:17;4.15;;;2.95;;
45792;SDS011;31495;42.740;22.908;2023-07-09T04:02:16;7.32;;;3.17;;
45792;SDS011;31495;42.740;22.908;2023-07-09T04:03:16;4.43;;;2.88;;
45792;SDS011;31495;42.740;22.908;2023-07-09T04:04:16;8.57;;;3.33;;
45792;SDS011;31495;42.740;22.908;2023-07-09T04:05:19;7.32;;;3.00;;
45792;SDS011;31495;42.740;22.908;2023-07-09T04:06:18;4.18;;;3.30;;
45792;SDS011;31495;42.740;22.908;2023-07-09T04:07:18;5.63;;;3.22;;
45792;SDS011;31495;42.740;22.908;2023-07-09T04:08:18;5.38;;;2.83;;
45792;SDS011;31495;42.740;22.908;2023-07-09T04:09:17;3.33;;;2.78;;
45792;SDS011;31495;42.740;22.908;2023-07-09T04:10:17;5.47;;;3.30;;
45792;SDS011;31495;42.740;22.908;2023-07-09T04:11:16;4.63;;;2.80;;
45792;SDS011;31495;42.740;22.908;2023-07-09T04:12:16;7.03;;;2.78;;
45792;SDS011;31495;42.740;22.908;2023-07-09T04:13:15;4.90;;;3.13;;
45792;SDS011;31495;42.740;22.908;2023-07-09T04:14:15;4.55;;;2.47;;
45792;SDS011;31495;42.740;22.908;2023-07-09T04:15:14;4.45;;;3.20;;
45792;SDS011;31495;42.740;22.908;2023-07-09T04:16:13;4.93;;;2.90;;
45792;SDS011;31495;42.740;22.908;2023-07-09T04:17:13;7.68;;;3.72;;
45792;SDS011;31495;42.740;22.908;2023-07-09T04:18:12;5.05;;;3.50;;
45792;SDS011;31495;42.740;22.908;2023-07-09T04:19:12;6.78;;;3.35;;
45792;SDS011;31495;42.740;22.908;2023-07-09T04:20:11;5.88;;;2.78;;
45792;SDS011;31495;42.740;22.908;2023-07-09T04:21:12;5.18;;;3.70;;
45792;SDS011;31495;42.740;22.908;2023-07-09T04:22:12;5.55;;;3.55;;
45792;SDS011;31495;42.740;22.908;2023-07-09T04:23:11;4.57;;;3.20;;
45792;SDS011;31495;42.740;22.908;2023-07-09T04:24:16;5.63;;;3.22;;
45792;SDS011;31495;42.740;22.908;2023-07-09T04:25:16;7.10;;;3.65;;
45792;SDS011;31495;42.740;22.908;2023-07-09T04:26:16;7.03;;;3.55;;
45792;SDS011;31495;42.740;22.908;2023-07-09T04:27:16;6.65;;;4.18;;
45792;SDS011;31495;42.740;22.908;2023-07-09T04:28:15;5.88;;;3.85;;
45792;SDS011;31495;42.740;22.908;2023-07-09T04:29:14;10.73;;;4.78;;
45792;SDS011;31495;42.740;22.908;2023-07-09T04:30:14;5.88;;;4.03;;
45792;SDS011;31495;42.740;22.908;2023-07-09T04:31:14;7.85;;;3.83;;
45792;SDS011;31495;42.740;22.908;2023-07-09T04:32:14;6.10;;;3.35;;
45792;SDS011;31495;42.740;22.908;2023-07-09T04:33:14;4.82;;;3.40;;
45792;SDS011;31495;42.740;22.908;2023-07-09T04:34:16;4.68;;;2.92;;
45792;SDS011;31495;42.740;22.908;2023-07-09T04:35:16;5.68;;;3.70;;
45792;SDS011;31495;42.740;22.908;2023-07-09T04:36:16;6.05;;;3.72;;
45792;SDS011;31495;42.740;22.908;2023-07-09T04:37:15;6.05;;;3.80;;
45792;SDS011;31495;42.740;22.908;2023-07-09T04:38:18;6.32;;;3.88;;
45792;SDS011;31495;42.740;22.908;2023-07-09T04:39:18;7.18;;;3.90;;
45792;SDS011;31495;42.740;22.908;2023-07-09T04:40:18;6.07;;;3.97;;
45792;SDS011;31495;42.740;22.908;2023-07-09T04:41:18;6.57;;;3.40;;
45792;SDS011;31495;42.740;22.908;2023-07-09T04:42:17;13.00;;;3.60;;
45792;SDS011;31495;42.740;22.908;2023-07-09T04:43:17;14.05;;;3.70;;
45792;SDS011;31495;42.740;22.908;2023-07-09T04:44:16;12.30;;;4.55;;
45792;SDS011;31495;42.740;22.908;2023-07-09T04:45:16;10.82;;;3.92;;
45792;SDS011;31495;42.740;22.908;2023-07-09T04:46:16;6.20;;;3.35;;
45792;SDS011;31495;42.740;22.908;2023-07-09T04:47:16;13.52;;;4.30;;
45792;SDS011;31495;42.740;22.908;2023-07-09T04:48:15;7.70;;;3.97;;
45792;SDS011;31495;42.740;22.908;2023-07-09T04:49:15;10.90;;;4.05;;
45792;SDS011;31495;42.740;22.908;2023-07-09T04:50:14;7.32;;;4.35;;
45792;SDS011;31495;42.740;22.908;2023-07-09T04:51:13;8.68;;;3.53;;
45792;SDS011;31495;42.740;22.908;2023-07-09T04:52:13;7.70;;;4.75;;
45792;SDS011;31495;42.740;22.908;2023-07-09T04:53:13;6.10;;;3.83;;
45792;SDS011;31495;42.740;22.908;2023-07-09T04:54:13;14.30;;;4.97;;
45792;SDS011;31495;42.740;22.908;2023-07-09T04:55:14;8.93;;;4.85;;
45792;SDS011;31495;42.740;22.908;2023-07-09T04:56:13;7.95;;;4.38;;
45792;SDS011;31495;42.740;22.908;2023-07-09T04:57:13;7.22;;;4.85;;
45792;SDS011;31495;42.740;22.908;2023-07-09T04:58:12;10.05;;;5.22;;
45792;SDS011;31495;42.740;22.908;2023-07-09T04:59:12;8.02;;;4.68;;
45792;SDS011;31495;42.740;22.908;2023-07-09T05:00:11;12.60;;;5.65;;
45792;SDS011;31495;42.740;22.908;2023-07-09T05:01:12;8.70;;;4.85;;
45792;SDS011;31495;42.740;22.908;2023-07-09T05:02:11;11.57;;;5.40;;
45792;SDS011;31495;42.740;22.908;2023-07-09T05:03:11;7.55;;;5.13;;
45792;SDS011;31495;42.740;22.908;2023-07-09T05:04:11;9.07;;;5.20;;
45792;SDS011;31495;42.740;22.908;2023-07-09T05:05:10;9.68;;;5.15;;
45792;SDS011;31495;42.740;22.908;2023-07-09T05:06:11;15.07;;;5.13;;
45792;SDS011;31495;42.740;22.908;2023-07-09T05:07:10;9.45;;;4.88;;
45792;SDS011;31495;42.740;22.908;2023-07-09T05:08:10;10.02;;;4.93;;
45792;SDS011;31495;42.740;22.908;2023-07-09T05:09:10;6.35;;;4.63;;
45792;SDS011;31495;42.740;22.908;2023-07-09T05:10:10;8.98;;;5.05;;
45792;SDS011;31495;42.740;22.908;2023-07-09T05:11:09;9.02;;;5.65;;
45792;SDS011;31495;42.740;22.908;2023-07-09T05:12:12;13.07;;;5.35;;
45792;SDS011;31495;42.740;22.908;2023-07-09T05:13:11;8.38;;;4.72;;
45792;SDS011;31495;42.740;22.908;2023-07-09T05:14:12;10.15;;;4.43;;
45792;SDS011;31495;42.740;22.908;2023-07-09T05:15:11;11.45;;;5.63;;
45792;SDS011;31495;42.740;22.908;2023-07-09T05:16:11;8.25;;;4.10;;
45792;SDS011;31495;42.740;22.908;2023-07-09T05:17:11;12.30;;;4.72;;
45792;SDS011;31495;42.740;22.908;2023-07-09T05:18:11;11.27;;;4.97;;
45792;SDS011;31495;42.740;22.908;2023-07-09T05:19:11;8.18;;;4.53;;
45792;SDS011;31495;42.740;22.908;2023-07-09T05:20:11;11.45;;;4.47;;
45792;SDS011;31495;42.740;22.908;2023-07-09T05:21:12;9.63;;;4.80;;
45792;SDS011;31495;42.740;22.908;2023-07-09T05:22:12;11.70;;;4.55;;
45792;SDS011;31495;42.740;22.908;2023-07-09T05:23:11;7.88;;;4.72;;
45792;SDS011;31495;42.740;22.908;2023-07-09T05:24:11;9.00;;;4.82;;
45792;SDS011;31495;42.740;22.908;2023-07-09T05:25:11;11.10;;;4.97;;
45792;SDS011;31495;42.740;22.908;2023-07-09T05:26:11;6.85;;;4.03;;
45792;SDS011;31495;42.740;22.908;2023-07-09T05:27:10;6.85;;;4.00;;
45792;SDS011;31495;42.740;22.908;2023-07-09T05:28:10;10.35;;;4.10;;
45792;SDS011;31495;42.740;22.908;2023-07-09T05:29:09;7.28;;;4.18;;
45792;SDS011;31495;42.740;22.908;2023-07-09T05:30:09;11.65;;;4.82;;
45792;SDS011;31495;42.740;22.908;2023-07-09T05:31:09;7.45;;;3.92;;
45792;SDS011;31495;42.740;22.908;2023-07-09T05:32:09;7.05;;;4.43;;
45792;SDS011;31495;42.740;22.908;2023-07-09T05:33:08;9.10;;;4.60;;
45792;SDS011;31495;42.740;22.908;2023-07-09T05:34:08;8.45;;;5.15;;
45792;SDS011;31495;42.740;22.908;2023-07-09T05:35:08;9.18;;;4.78;;
45792;SDS011;31495;42.740;22.908;2023-07-09T05:36:08;10.07;;;5.00;;
45792;SDS011;31495;42.740;22.908;2023-07-09T05:37:15;7.50;;;4.30;;
45792;SDS011;31495;42.740;22.908;2023-07-09T05:38:14;7.65;;;4.43;;
45792;SDS011;31495;42.740;22.908;2023-07-09T05:39:14;12.35;;;4.65;;
45792;SDS011;31495;42.740;22.908;2023-07-09T05:40:15;16.33;;;5.57;;
45792;SDS011;31495;42.740;22.908;2023-07-09T05:41:14;13.25;;;5.13;;
45792;SDS011;31495;42.740;22.908;2023-07-09T05:42:15;8.20;;;4.18;;
45792;SDS011;31495;42.740;22.908;2023-07-09T05:43:15;8.88;;;4.90;;
45792;SDS011;31495;42.740;22.908;2023-07-09T05:44:14;8.52;;;4.75;;
45792;SDS011;31495;42.740;22.908;2023-07-09T05:45:14;14.90;;;5.18;;
45792;SDS011;31495;42.740;22.908;2023-07-09T05:46:14;8.10;;;4.95;;
45792;SDS011;31495;42.740;22.908;2023-07-09T05:47:14;9.38;;;4.60;;
45792;SDS011;31495;42.740;22.908;2023-07-09T05:48:13;9.02;;;4.60;;
45792;SDS011;31495;42.740;22.908;2023-07-09T05:49:13;7.10;;;4.35;;
45792;SDS011;31495;42.740;22.908;2023-07-09T05:50:12;7.43;;;4.30;;
45792;SDS011;31495;42.740;22.908;2023-07-09T05:51:12;6.50;;;3.60;;
45792;SDS011;31495;42.740;22.908;2023-07-09T05:52:11;8.50;;;4.40;;
45792;SDS011;31495;42.740;22.908;2023-07-09T05:53:11;7.25;;;4.13;;
45792;SDS011;31495;42.740;22.908;2023-07-09T05:54:10;7.35;;;4.10;;
45792;SDS011;31495;42.740;22.908;2023-07-09T05:55:10;7.75;;;3.83;;
45792;SDS011;31495;42.740;22.908;2023-07-09T05:56:10;9.30;;;4.65;;
45792;SDS011;31495;42.740;22.908;2023-07-09T05:57:10;6.28;;;4.68;;
45792;SDS011;31495;42.740;22.908;2023-07-09T05:58:09;9.30;;;3.90;;
45792;SDS011;31495;42.740;22.908;2023-07-09T05:59:09;6.05;;;3.75;;
45792;SDS011;31495;42.740;22.908;2023-07-09T06:00:09;7.95;;;4.03;;
45792;SDS011;31495;42.740;22.908;2023-07-09T06:01:09;13.57;;;4.33;;
45792;SDS011;31495;42.740;22.908;2023-07-09T06:02:19;12.10;;;4.25;;
45792;SDS011;31495;42.740;22.908;2023-07-09T06:03:20;6.63;;;4.20;;